Airport ID:KCXP
Update Time (UTC):31/07/2021 03:59
Wind Speed (Knots):2
Wind Direction (Magnetic):70
Temperature (°C):21
Dew Point (°C):11
Humidity (%):53
Altimeter (inHg):30.22
Density Altitude (Feet):6400
Visibility:10+
Clouds (Hundreds of feet):SCT110
Present Weather:
METAR:METAR KCXP 310355Z AUTO 00000KT 10SM SCT110 21/11 A3022 RMK AO2

The data displayed is for advisory purposes only and is not to be used for flight planning or operations.